createdAt,value
2022-10-17T00:02:08.582Z,38.10
2022-10-17T00:04:36.634Z,35.00
2022-10-17T00:07:04.676Z,36.70
2022-10-17T00:09:34.100Z,36.87
2022-10-17T00:12:02.713Z,38.37
2022-10-17T00:14:30.739Z,39.23
2022-10-17T00:16:58.835Z,36.90
2022-10-17T00:19:27.022Z,37.80
2022-10-17T00:21:55.566Z,36.57
2022-10-17T00:24:23.595Z,36.13
2022-10-17T00:26:52.971Z,38.07
2022-10-17T00:29:21.001Z,39.37
2022-10-17T00:31:49.353Z,38.60
2022-10-17T00:34:17.392Z,36.83
2022-10-17T00:36:45.968Z,38.23
2022-10-17T00:39:14.139Z,38.30
2022-10-17T00:41:42.212Z,37.70
2022-10-17T00:44:47.038Z,37.30
2022-10-17T00:47:19.065Z,38.07
2022-10-17T00:49:48.920Z,37.27
2022-10-17T00:52:22.872Z,35.53
2022-10-17T00:54:54.560Z,37.57
2022-10-17T00:57:22.636Z,39.03
2022-10-17T00:59:54.293Z,37.67
2022-10-17T01:02:24.923Z,37.83
2022-10-17T01:04:55.117Z,37.77
2022-10-17T01:07:23.274Z,38.17
2022-10-17T01:09:51.557Z,37.20
2022-10-17T01:12:22.076Z,38.13
2022-10-17T01:15:07.005Z,38.40
2022-10-17T01:17:47.636Z,36.40
2022-10-17T01:20:43.228Z,38.27
2022-10-17T01:23:40.427Z,37.50
2022-10-17T01:26:17.407Z,36.37
2022-10-17T01:29:10.411Z,37.40
2022-10-17T01:31:44.079Z,35.43
2022-10-17T01:34:16.136Z,38.33
2022-10-17T01:36:50.302Z,38.83
2022-10-17T01:39:26.889Z,36.30
2022-10-17T01:42:00.473Z,37.10
2022-10-17T01:44:31.496Z,36.67
2022-10-17T01:47:04.741Z,36.73
2022-10-17T01:49:34.941Z,37.17
2022-10-17T01:52:05.545Z,38.07
2022-10-17T01:54:36.271Z,36.47
2022-10-17T01:57:07.527Z,37.57
2022-10-17T01:59:39.366Z,36.07
2022-10-17T02:02:09.781Z,34.27
2022-10-17T02:04:38.011Z,39.27
2022-10-17T02:07:09.621Z,37.23
2022-10-17T02:09:38.624Z,37.03
2022-10-17T02:12:35.228Z,38.20
2022-10-17T02:15:13.870Z,37.20
2022-10-17T02:17:47.612Z,39.13
2022-10-17T02:20:21.016Z,35.70
2022-10-17T02:22:53.042Z,37.33
2022-10-17T02:25:25.264Z,35.67
2022-10-17T02:27:59.916Z,37.67
2022-10-17T02:30:32.754Z,37.27
2022-10-17T02:33:03.685Z,38.30
2022-10-17T02:35:34.300Z,37.50
2022-10-17T02:38:03.872Z,37.87
2022-10-17T02:40:32.568Z,37.30
2022-10-17T02:43:01.714Z,35.80
2022-10-17T02:45:35.888Z,39.70
2022-10-17T02:48:10.076Z,38.33
2022-10-17T02:50:44.645Z,37.07
2022-10-17T02:53:16.449Z,36.87
2022-10-17T02:55:48.889Z,36.90
2022-10-17T02:58:20.434Z,38.20
2022-10-17T03:00:48.988Z,37.43
2022-10-17T03:03:23.408Z,37.20
2022-10-17T03:05:52.423Z,37.87
2022-10-17T03:08:24.067Z,37.87
2022-10-17T03:10:52.485Z,38.60
2022-10-17T03:13:22.034Z,39.10
2022-10-17T03:15:51.048Z,37.73
2022-10-17T03:18:19.091Z,35.80
2022-10-17T03:20:50.636Z,33.80
2022-10-17T03:23:18.667Z,37.20
2022-10-17T03:25:47.342Z,38.40
2022-10-17T03:28:16.710Z,37.37
2022-10-17T03:30:44.835Z,36.30
2022-10-17T03:33:12.938Z,36.50
2022-10-17T03:35:41.567Z,37.47
2022-10-17T03:38:11.364Z,34.93
2022-10-17T03:40:39.490Z,35.60
2022-10-17T03:43:07.755Z,36.30
2022-10-17T03:45:36.941Z,36.90
2022-10-17T03:48:06.129Z,37.40
2022-10-17T03:50:34.164Z,35.83
2022-10-17T03:53:02.184Z,37.07
2022-10-17T03:55:31.605Z,38.03
2022-10-17T03:57:59.901Z,36.27
2022-10-17T04:00:28.098Z,38.40
2022-10-17T04:02:59.526Z,37.53
2022-10-17T04:05:28.086Z,38.53
2022-10-17T04:07:59.800Z,36.60
2022-10-17T04:10:51.745Z,34.63
2022-10-17T04:13:19.887Z,35.70
2022-10-17T04:15:55.425Z,37.30
2022-10-17T04:18:23.766Z,36.53
2022-10-17T04:20:51.932Z,36.03
2022-10-17T04:23:20.914Z,36.20
2022-10-17T04:25:52.027Z,34.67
2022-10-17T04:28:20.219Z,35.13
2022-10-17T04:30:49.958Z,35.50
2022-10-17T04:33:21.510Z,34.87
2022-10-17T04:35:56.769Z,35.50
2022-10-17T04:38:28.412Z,34.80
2022-10-17T04:41:00.129Z,36.03
2022-10-17T04:43:28.203Z,35.20
2022-10-17T04:45:56.322Z,33.23
2022-10-17T04:48:24.360Z,34.37
2022-10-17T04:50:56.105Z,37.03
2022-10-17T04:53:42.988Z,36.43
2022-10-17T04:56:14.252Z,33.93
2022-10-17T04:58:43.457Z,35.50
2022-10-17T05:01:13.290Z,36.10
2022-10-17T05:03:43.033Z,35.00
2022-10-17T05:06:12.516Z,35.03
2022-10-17T05:08:41.327Z,33.80
2022-10-17T05:11:19.140Z,35.30
2022-10-17T05:13:51.206Z,35.03
2022-10-17T05:16:20.123Z,34.10
2022-10-17T05:18:52.783Z,32.23
2022-10-17T05:21:22.148Z,34.60
2022-10-17T05:23:50.566Z,33.23
2022-10-17T05:26:20.546Z,33.67
2022-10-17T05:28:49.849Z,34.23
2022-10-17T05:31:20.368Z,32.10
2022-10-17T05:33:48.529Z,33.27
2022-10-17T05:36:16.641Z,34.20
2022-10-17T05:38:44.891Z,32.70
2022-10-17T05:41:12.986Z,32.13
2022-10-17T05:43:42.403Z,30.80
2022-10-17T05:46:11.011Z,31.13
2022-10-17T05:48:40.252Z,32.43
2022-10-17T05:51:10.500Z,33.87
2022-10-17T05:53:40.297Z,30.57
2022-10-17T05:56:14.385Z,31.47
2022-10-17T05:58:53.239Z,29.50
2022-10-17T06:01:53.623Z,29.43
2022-10-17T06:04:23.400Z,31.13
2022-10-17T06:06:53.243Z,31.63
2022-10-17T06:09:21.568Z,30.30
2022-10-17T06:11:52.436Z,30.63
2022-10-17T06:14:22.882Z,30.33
2022-10-17T06:16:54.566Z,27.50
2022-10-17T06:19:22.603Z,27.03
2022-10-17T06:21:50.672Z,27.67
2022-10-17T06:24:22.679Z,26.73
2022-10-17T06:26:53.124Z,25.83
2022-10-17T06:29:23.950Z,27.13
2022-10-17T06:31:53.236Z,24.50
2022-10-17T06:34:22.026Z,24.07
2022-10-17T06:36:50.292Z,24.80
2022-10-17T06:39:20.077Z,23.70
2022-10-17T06:42:01.452Z,24.80
2022-10-17T06:44:59.806Z,23.33
2022-10-17T06:47:46.306Z,24.57
2022-10-17T06:50:43.239Z,25.90
2022-10-17T06:53:20.409Z,23.73
2022-10-17T06:56:14.304Z,23.60
2022-10-17T06:59:10.660Z,22.80
2022-10-17T07:02:01.899Z,24.60
2022-10-17T07:04:31.109Z,23.67
2022-10-17T07:09:34.469Z,23.63
2022-10-17T07:12:02.571Z,22.10
2022-10-17T07:14:32.863Z,23.93
2022-10-17T07:17:02.827Z,22.37
2022-10-17T07:19:33.228Z,22.83
2022-10-17T07:22:01.287Z,22.57
2022-10-17T07:24:29.581Z,22.50
2022-10-17T07:27:15.874Z,23.57
2022-10-17T07:29:44.045Z,22.40
2022-10-17T07:32:34.663Z,24.37
2022-10-17T07:35:03.525Z,21.23
2022-10-17T07:37:32.065Z,23.00
2022-10-17T07:40:01.292Z,23.30
2022-10-17T07:42:29.550Z,22.90
2022-10-17T07:44:58.580Z,23.00
2022-10-17T07:47:31.421Z,23.80
2022-10-17T07:50:02.182Z,23.20
2022-10-17T07:52:30.468Z,22.70
2022-10-17T07:54:58.730Z,23.10
2022-10-17T07:57:26.983Z,22.53
2022-10-17T07:59:55.323Z,23.40
2022-10-17T08:02:24.978Z,25.73
2022-10-17T08:04:53.103Z,24.83
2022-10-17T08:07:27.003Z,25.90
2022-10-17T08:09:57.637Z,25.40
2022-10-17T08:12:26.236Z,25.57
2022-10-17T08:14:54.318Z,23.37
2022-10-17T08:17:22.814Z,24.63
2022-10-17T08:19:50.803Z,24.40
2022-10-17T08:22:18.988Z,24.00
2022-10-17T08:24:48.417Z,24.97
2022-10-17T08:27:21.514Z,24.50
2022-10-17T08:29:52.863Z,22.93
2022-10-17T08:32:21.856Z,25.13
2022-10-17T08:34:50.153Z,26.80
2022-10-17T08:37:18.336Z,25.90
2022-10-17T08:39:48.057Z,26.80
2022-10-17T08:42:32.332Z,25.70
2022-10-17T08:45:05.919Z,25.40
2022-10-17T08:47:37.531Z,28.23
2022-10-17T08:50:07.683Z,27.87
2022-10-17T08:52:39.107Z,27.77
2022-10-17T08:55:16.442Z,26.90
2022-10-17T08:57:44.842Z,26.33
2022-10-17T09:00:19.226Z,28.10
2022-10-17T09:02:57.692Z,28.60
2022-10-17T09:05:34.947Z,28.57
2022-10-17T09:08:26.112Z,28.50
2022-10-17T09:10:58.955Z,27.60
2022-10-17T09:13:38.013Z,27.77
2022-10-17T09:16:16.236Z,26.80
2022-10-17T09:18:47.752Z,27.70
2022-10-17T09:21:20.968Z,25.73
2022-10-17T09:23:59.445Z,27.10
2022-10-17T09:26:38.742Z,25.20
2022-10-17T09:29:15.408Z,27.57
2022-10-17T09:31:46.767Z,26.77
2022-10-17T09:34:14.875Z,28.00
2022-10-17T09:36:44.124Z,27.90
2022-10-17T09:39:15.118Z,28.30
2022-10-17T09:41:47.259Z,27.07
2022-10-17T09:44:19.008Z,28.33
2022-10-17T09:46:57.742Z,27.93
2022-10-17T09:49:37.300Z,27.90
2022-10-17T09:52:07.332Z,25.97
2022-10-17T09:54:42.928Z,26.20
2022-10-17T09:57:13.969Z,27.47
2022-10-17T09:59:47.992Z,27.10
2022-10-17T10:02:19.783Z,28.30
2022-10-17T10:05:07.255Z,28.40
2022-10-17T10:07:38.204Z,27.87
2022-10-17T10:10:08.251Z,28.13
2022-10-17T10:12:39.848Z,25.57
2022-10-17T10:15:32.126Z,27.03
2022-10-17T10:18:00.183Z,26.50
2022-10-17T10:20:32.491Z,25.60
2022-10-17T10:23:17.434Z,27.57
2022-10-17T10:25:56.405Z,25.50
2022-10-17T10:28:28.055Z,26.37
2022-10-17T10:30:57.308Z,26.03
2022-10-17T10:33:29.253Z,26.00
2022-10-17T10:35:59.476Z,25.50
2022-10-17T10:38:27.571Z,24.47
2022-10-17T10:40:57.163Z,23.47
2022-10-17T10:43:33.292Z,22.43
2022-10-17T10:46:01.929Z,23.00
2022-10-17T10:48:33.431Z,24.00
2022-10-17T10:51:03.822Z,24.10
2022-10-17T10:53:41.458Z,23.23
2022-10-17T10:56:17.095Z,23.40
2022-10-17T10:58:54.449Z,22.80
2022-10-17T11:01:29.460Z,22.03
2022-10-17T11:04:21.547Z,23.17
2022-10-17T11:06:51.977Z,23.63
2022-10-17T11:09:30.093Z,23.17
2022-10-17T11:12:08.161Z,22.20
2022-10-17T11:14:44.533Z,22.47
2022-10-17T11:17:19.006Z,22.27
2022-10-17T11:19:53.561Z,22.63
2022-10-17T11:22:29.292Z,21.70
2022-10-17T11:25:00.940Z,22.10
2022-10-17T11:27:30.146Z,23.00
2022-10-17T11:29:59.792Z,21.07
2022-10-17T11:32:31.531Z,21.80
2022-10-17T11:35:04.863Z,21.20
2022-10-17T11:37:36.563Z,19.97
2022-10-17T11:40:09.370Z,23.40
2022-10-17T11:42:42.798Z,21.60
2022-10-17T11:45:15.470Z,21.10
2022-10-17T11:47:46.576Z,20.00
2022-10-17T11:53:14.514Z,23.20
2022-10-17T11:55:43.270Z,20.47
2022-10-17T11:58:24.944Z,20.47
2022-10-17T12:01:02.186Z,21.13
2022-10-17T12:03:36.956Z,20.40
2022-10-17T12:06:12.549Z,20.03
2022-10-17T12:08:45.967Z,21.60
2022-10-17T12:11:20.911Z,20.90
2022-10-17T12:13:54.687Z,19.17
2022-10-17T12:16:51.332Z,20.63
2022-10-17T12:19:28.818Z,19.70
2022-10-17T12:22:05.033Z,19.70
2022-10-17T12:24:40.121Z,19.50
2022-10-17T12:27:42.473Z,19.10
2022-10-17T12:30:19.983Z,17.90
2022-10-17T12:33:06.731Z,18.57
2022-10-17T12:35:37.611Z,19.17
2022-10-17T12:38:20.616Z,18.77
2022-10-17T12:41:06.105Z,17.80
2022-10-17T12:43:52.846Z,18.20
2022-10-17T12:46:48.402Z,17.47
2022-10-17T12:49:38.672Z,16.87
2022-10-17T12:52:35.303Z,16.67
2022-10-17T12:55:13.958Z,17.60
2022-10-17T12:57:48.556Z,17.00
2022-10-17T13:00:24.168Z,17.10
2022-10-17T13:02:55.415Z,17.10
2022-10-17T13:05:29.453Z,16.40
2022-10-17T13:07:59.971Z,15.37
2022-10-17T13:10:29.652Z,14.93
2022-10-17T13:13:06.501Z,15.57
2022-10-17T13:15:35.169Z,15.90
2022-10-17T13:18:03.330Z,15.47
2022-10-17T13:20:33.412Z,17.10
2022-10-17T13:23:01.514Z,15.30
2022-10-17T13:25:30.027Z,15.50
2022-10-17T13:28:07.538Z,14.83
2022-10-17T13:30:37.372Z,16.07
2022-10-17T13:33:19.377Z,16.00
2022-10-17T13:36:05.151Z,15.70
2022-10-17T13:38:36.636Z,16.20
2022-10-17T13:41:34.198Z,14.30
2022-10-17T13:44:02.759Z,15.80
2022-10-17T13:46:37.907Z,14.50
2022-10-17T13:49:12.172Z,15.13
2022-10-17T13:51:44.313Z,13.83
2022-10-17T13:54:20.427Z,13.10
2022-10-17T13:56:48.552Z,15.80
2022-10-17T13:59:24.175Z,13.53
2022-10-17T14:01:52.885Z,14.47
2022-10-17T14:04:21.024Z,14.27
2022-10-17T14:06:52.310Z,14.20
2022-10-17T14:09:23.868Z,15.00
2022-10-17T14:12:02.714Z,14.87
2022-10-17T14:14:46.207Z,14.70
2022-10-17T14:17:24.162Z,15.53
2022-10-17T14:20:06.556Z,15.03
2022-10-17T14:22:50.439Z,14.13
2022-10-17T14:25:30.790Z,14.73
2022-10-17T14:28:08.081Z,15.40
2022-10-17T14:30:55.590Z,14.50
2022-10-17T14:33:27.122Z,13.90
2022-10-17T14:35:56.886Z,13.27
2022-10-17T14:38:26.700Z,12.80
2022-10-17T14:41:09.769Z,15.00
2022-10-17T14:43:56.190Z,14.17
2022-10-17T14:46:24.411Z,13.07
2022-10-17T14:48:57.264Z,12.57
2022-10-17T14:51:25.324Z,13.53
2022-10-17T14:54:15.166Z,12.03
2022-10-17T14:56:44.223Z,11.37
2022-10-17T14:59:18.248Z,12.40
2022-10-17T15:01:54.003Z,12.70
2022-10-17T15:04:23.457Z,11.03
2022-10-17T15:06:55.529Z,12.67
2022-10-17T15:09:28.874Z,10.60
2022-10-17T15:11:59.376Z,11.70
2022-10-17T15:14:29.019Z,12.67
2022-10-17T15:16:58.013Z,11.63
2022-10-17T15:19:27.461Z,10.90
2022-10-17T15:21:56.492Z,12.43
2022-10-17T15:24:27.023Z,11.07
2022-10-17T15:26:56.635Z,11.17
2022-10-17T15:29:24.719Z,9.93
2022-10-17T15:32:00.489Z,9.93
2022-10-17T15:34:29.886Z,10.93
2022-10-17T15:36:58.930Z,9.87
2022-10-17T15:39:29.549Z,11.40
2022-10-17T15:41:58.854Z,10.23
2022-10-17T15:44:28.019Z,9.30
2022-10-17T15:46:57.324Z,8.80
2022-10-17T15:49:26.906Z,9.97
2022-10-17T15:51:55.443Z,9.40
2022-10-17T15:54:27.085Z,9.60
2022-10-17T15:56:58.026Z,10.00
2022-10-17T15:59:31.848Z,9.63
2022-10-17T16:02:02.179Z,9.00
2022-10-17T16:04:30.693Z,9.90
2022-10-17T16:06:59.059Z,8.07
2022-10-17T16:09:29.194Z,8.70
2022-10-17T16:11:58.583Z,8.30
2022-10-17T16:14:26.665Z,8.17
2022-10-17T16:16:54.686Z,9.83
2022-10-17T16:19:23.749Z,8.77
2022-10-17T16:21:51.812Z,8.40
2022-10-17T16:24:19.939Z,8.53
2022-10-17T16:26:47.947Z,8.83
2022-10-17T16:29:17.854Z,8.27
2022-10-17T16:31:46.767Z,8.80
2022-10-17T16:34:15.981Z,7.50
2022-10-17T16:36:44.242Z,8.07
2022-10-17T16:39:12.301Z,7.97
2022-10-17T16:41:40.720Z,8.37
2022-10-17T16:44:10.306Z,7.80
2022-10-17T16:46:39.777Z,7.90
2022-10-17T16:49:08.138Z,8.30
2022-10-17T16:51:36.934Z,7.87
2022-10-17T16:54:06.431Z,7.70
2022-10-17T16:56:35.082Z,7.80
2022-10-17T16:59:04.245Z,8.33
2022-10-17T17:01:33.137Z,7.77
2022-10-17T17:04:05.699Z,7.50
2022-10-17T17:06:34.409Z,7.20
2022-10-17T17:09:03.592Z,7.83
2022-10-17T17:11:33.458Z,7.00
2022-10-17T17:14:07.413Z,7.50
2022-10-17T17:16:37.581Z,7.23
2022-10-17T17:19:09.760Z,6.90
2022-10-17T17:21:40.057Z,7.47
2022-10-17T17:24:08.355Z,6.80
2022-10-17T17:26:37.561Z,7.50
2022-10-17T17:29:07.204Z,7.07
2022-10-17T17:31:39.689Z,7.37
2022-10-17T17:34:17.245Z,7.40
2022-10-17T17:36:50.296Z,7.13
2022-10-17T17:39:19.377Z,6.97
2022-10-17T17:41:49.701Z,7.27
2022-10-17T17:44:19.301Z,7.53
2022-10-17T17:46:49.643Z,7.10
2022-10-17T17:49:22.326Z,7.67
2022-10-17T17:51:52.411Z,7.30
2022-10-17T17:54:31.093Z,8.13
2022-10-17T17:57:03.691Z,7.90
2022-10-17T17:59:34.258Z,7.40
2022-10-17T18:02:06.724Z,7.53
2022-10-17T18:04:41.182Z,8.07
2022-10-17T18:07:13.344Z,7.30
2022-10-17T18:09:43.365Z,8.17
2022-10-17T18:12:13.094Z,8.53
2022-10-17T18:14:44.826Z,7.50
2022-10-17T18:17:14.466Z,7.77
2022-10-17T18:19:45.652Z,7.70
2022-10-17T18:22:15.827Z,7.37
2022-10-17T18:24:44.905Z,8.20
2022-10-17T18:27:16.542Z,8.33
2022-10-17T18:29:47.817Z,7.60
2022-10-17T18:32:17.927Z,7.70
2022-10-17T18:34:51.687Z,8.20
2022-10-17T18:37:21.210Z,8.23
2022-10-17T18:39:55.950Z,8.00
2022-10-17T18:42:27.394Z,8.17
2022-10-17T18:44:59.601Z,8.90
2022-10-17T18:47:32.165Z,9.00
2022-10-17T18:50:06.053Z,8.20
2022-10-17T18:52:43.666Z,9.30
2022-10-17T18:55:13.868Z,9.00
2022-10-17T18:57:46.955Z,9.60
2022-10-17T19:00:18.253Z,9.20
2022-10-17T19:02:48.082Z,8.33
2022-10-17T19:05:19.574Z,9.00
2022-10-17T19:07:53.902Z,8.50
2022-10-17T19:10:22.317Z,8.60
2022-10-17T19:12:51.875Z,8.80
2022-10-17T19:15:25.946Z,9.80
2022-10-17T19:17:55.756Z,9.77
2022-10-17T19:20:28.314Z,9.30
2022-10-17T19:22:58.213Z,8.50
2022-10-17T19:25:30.405Z,8.90
2022-10-17T19:28:03.964Z,8.43
2022-10-17T19:30:34.009Z,8.63
2022-10-17T19:33:04.144Z,8.30
2022-10-17T19:35:36.817Z,8.40
2022-10-17T19:38:09.352Z,9.37
2022-10-17T19:40:42.261Z,8.70
2022-10-17T19:43:11.934Z,9.17
2022-10-17T19:45:42.066Z,8.97
2022-10-17T19:48:13.412Z,9.27
2022-10-17T19:50:51.941Z,8.50
2022-10-17T19:53:21.299Z,8.63
2022-10-17T19:55:51.474Z,9.17
2022-10-17T19:58:22.517Z,8.70
2022-10-17T20:00:59.249Z,8.87
2022-10-17T20:03:30.604Z,8.77
2022-10-17T20:06:00.486Z,8.07
2022-10-17T20:08:30.425Z,8.40
2022-10-17T20:11:04.509Z,8.10
2022-10-17T20:13:35.375Z,9.40
2022-10-17T20:16:06.576Z,8.60
2022-10-17T20:18:35.870Z,9.30
2022-10-17T20:21:12.257Z,9.77
2022-10-17T20:23:41.259Z,9.03
2022-10-17T20:26:25.879Z,8.70
2022-10-17T20:29:02.683Z,9.17
2022-10-17T20:31:33.421Z,9.17
2022-10-17T20:34:01.563Z,9.30
2022-10-17T20:36:32.526Z,8.90
2022-10-17T20:39:03.271Z,9.90
2022-10-17T20:41:31.440Z,9.23
2022-10-17T20:44:02.585Z,9.47
2022-10-17T20:46:37.813Z,8.93
2022-10-17T20:49:07.468Z,9.87
2022-10-17T20:51:37.599Z,9.83
2022-10-17T20:54:08.200Z,9.33
2022-10-17T20:56:38.833Z,9.20
2022-10-17T20:59:12.211Z,8.90
2022-10-17T21:01:40.994Z,10.30
2022-10-17T21:04:40.603Z,9.13
2022-10-17T21:07:03.321Z,8.93
2022-10-17T21:09:31.428Z,9.70
2022-10-17T21:14:39.202Z,8.87
2022-10-17T21:17:07.861Z,9.37
2022-10-17T21:19:36.087Z,10.00
2022-10-17T21:22:05.839Z,9.80
2022-10-17T21:24:34.191Z,9.60
2022-10-17T21:27:02.459Z,9.47
2022-10-17T21:29:30.609Z,8.93
2022-10-17T21:32:02.439Z,9.17
2022-10-17T21:34:31.514Z,9.00
2022-10-17T21:37:06.162Z,8.83
2022-10-17T21:39:35.647Z,9.47
2022-10-17T21:42:07.252Z,9.83
2022-10-17T21:44:38.430Z,8.80
2022-10-17T21:47:07.623Z,9.00
2022-10-17T21:49:35.786Z,9.50
2022-10-17T21:52:07.332Z,8.57
2022-10-17T21:54:36.826Z,8.30
2022-10-17T21:57:06.082Z,8.03
2022-10-17T21:59:35.580Z,8.80
2022-10-17T22:02:03.898Z,9.17
2022-10-17T22:04:32.181Z,8.30
2022-10-17T22:07:02.596Z,9.00
2022-10-17T22:09:33.419Z,8.47
2022-10-17T22:12:05.402Z,8.93
2022-10-17T22:14:33.492Z,8.90
2022-10-17T22:17:03.892Z,8.80
2022-10-17T22:19:31.972Z,9.30
2022-10-17T22:22:00.579Z,8.40
2022-10-17T22:24:29.741Z,8.67
2022-10-17T22:27:00.401Z,9.03
2022-10-17T22:29:30.015Z,9.50
2022-10-17T22:32:00.456Z,9.50
2022-10-17T22:34:28.875Z,8.30
2022-10-17T22:36:57.822Z,8.70
2022-10-17T22:39:27.273Z,8.57
2022-10-17T22:41:55.578Z,8.43
2022-10-17T22:44:23.897Z,10.17
2022-10-17T22:46:55.872Z,8.40
2022-10-17T22:49:23.985Z,8.50
2022-10-17T22:51:54.580Z,9.20
2022-10-17T22:54:22.942Z,9.10
2022-10-17T22:56:51.088Z,8.87
2022-10-17T22:59:19.121Z,9.03
2022-10-17T23:01:47.242Z,9.83
2022-10-17T23:04:19.333Z,9.67
2022-10-17T23:06:48.691Z,8.57
2022-10-17T23:09:19.058Z,8.20
2022-10-17T23:11:48.517Z,8.63
2022-10-17T23:14:19.253Z,7.33
2022-10-17T23:16:51.623Z,8.30
2022-10-17T23:19:23.484Z,8.73
2022-10-17T23:21:53.622Z,8.37
2022-10-17T23:24:21.728Z,8.30
2022-10-17T23:26:51.266Z,8.50
2022-10-17T23:29:19.646Z,8.30
2022-10-17T23:31:47.810Z,7.40
2022-10-17T23:34:15.844Z,8.40
2022-10-17T23:36:46.551Z,8.33
2022-10-17T23:39:14.682Z,7.77
2022-10-17T23:41:45.044Z,8.33
2022-10-17T23:44:14.142Z,7.53
2022-10-17T23:46:44.391Z,7.57
2022-10-17T23:49:13.883Z,7.40
2022-10-17T23:51:42.667Z,7.97
2022-10-17T23:54:13.228Z,7.50
2022-10-17T23:56:43.416Z,7.77
2022-10-17T23:59:15.203Z,7.40
